createdAt,value
2018-05-08T00:00:08.505Z,16.85
2018-05-08T00:01:12.827Z,16.90
2018-05-08T00:02:17.538Z,17.02
2018-05-08T00:03:22.597Z,16.95
2018-05-08T00:04:27.016Z,16.93
2018-05-08T00:05:31.174Z,16.84
2018-05-08T00:06:35.269Z,16.83
2018-05-08T00:07:39.364Z,16.94
2018-05-08T00:08:43.444Z,17.06
2018-05-08T00:09:47.756Z,17.12
2018-05-08T00:10:52.160Z,17.06
2018-05-08T00:11:56.242Z,16.97
2018-05-08T00:13:00.308Z,16.87
2018-05-08T00:14:04.422Z,16.88
2018-05-08T00:15:08.832Z,16.93
2018-05-08T00:16:12.938Z,16.88
2018-05-08T00:17:17.363Z,16.80
2018-05-08T00:18:21.464Z,16.81
2018-05-08T00:19:25.567Z,16.75
2018-05-08T00:20:30.517Z,16.68
2018-05-08T00:21:34.664Z,16.75
2018-05-08T00:22:38.726Z,16.82
2018-05-08T00:23:42.816Z,16.80
2018-05-08T00:24:46.935Z,16.66
2018-05-08T00:25:51.095Z,16.75
2018-05-08T00:26:55.476Z,16.90
2018-05-08T00:27:59.570Z,16.99
2018-05-08T00:29:03.987Z,16.98
2018-05-08T00:30:08.420Z,16.86
2018-05-08T00:31:12.490Z,16.71
2018-05-08T00:32:17.606Z,16.80
2018-05-08T00:33:21.677Z,16.81
2018-05-08T00:34:26.081Z,16.81
2018-05-08T00:35:30.145Z,16.81
2018-05-08T00:36:34.478Z,16.67
2018-05-08T00:37:38.648Z,16.77
2018-05-08T00:38:42.736Z,16.66
2018-05-08T00:39:46.844Z,16.63
2018-05-08T00:40:51.284Z,16.71
2018-05-08T00:41:55.359Z,16.73
2018-05-08T00:42:59.494Z,16.81
2018-05-08T00:44:03.606Z,16.77
2018-05-08T00:45:08.162Z,16.76
2018-05-08T00:46:12.537Z,16.66
2018-05-08T00:47:16.621Z,16.61
2018-05-08T00:48:20.770Z,16.44
2018-05-08T00:49:24.859Z,16.38
2018-05-08T00:50:29.015Z,16.43
2018-05-08T00:51:33.103Z,16.50
2018-05-08T00:52:37.253Z,16.47
2018-05-08T00:53:41.309Z,16.60
2018-05-08T00:54:55.204Z,16.53
2018-05-08T00:55:59.290Z,16.42
2018-05-08T00:57:03.678Z,16.29
2018-05-08T00:58:07.779Z,16.15
2018-05-08T00:59:11.916Z,16.22
2018-05-08T01:00:17.545Z,16.23
2018-05-08T01:01:22.547Z,16.26
2018-05-08T01:02:26.702Z,16.36
2018-05-08T01:03:31.593Z,16.45
2018-05-08T01:04:35.973Z,16.41
2018-05-08T01:05:40.051Z,16.37
2018-05-08T01:06:44.200Z,16.34
2018-05-08T01:07:48.271Z,16.40
2018-05-08T01:08:52.372Z,16.36
2018-05-08T01:09:57.850Z,16.32
2018-05-08T01:11:02.790Z,16.35
2018-05-08T01:12:06.938Z,16.31
2018-05-08T01:13:11.055Z,16.20
2018-05-08T01:14:16.089Z,16.20
2018-05-08T01:15:20.752Z,16.26
2018-05-08T01:16:24.906Z,16.25
2018-05-08T01:17:29.073Z,16.23
2018-05-08T01:18:33.145Z,16.28
2018-05-08T01:19:37.305Z,16.31
2018-05-08T01:20:41.386Z,16.33
2018-05-08T01:21:45.430Z,16.26
2018-05-08T01:22:49.867Z,16.13
2018-05-08T01:23:53.986Z,16.07
2018-05-08T01:24:58.097Z,16.11
2018-05-08T01:26:02.437Z,16.12
2018-05-08T01:27:06.514Z,16.10
2018-05-08T01:28:10.880Z,16.16
2018-05-08T01:29:15.489Z,16.15
2018-05-08T01:30:19.992Z,16.14
2018-05-08T01:31:24.072Z,16.16
2018-05-08T01:32:28.180Z,16.05
2018-05-08T01:33:32.927Z,15.86
2018-05-08T01:34:36.962Z,15.70
2018-05-08T01:35:41.419Z,15.54
2018-05-08T01:36:45.522Z,15.42
2018-05-08T01:37:49.720Z,15.31
2018-05-08T01:38:53.902Z,15.24
2018-05-08T01:39:58.047Z,15.27
2018-05-08T01:41:02.162Z,15.42
2018-05-08T01:42:06.650Z,15.42
2018-05-08T01:43:10.710Z,15.53
2018-05-08T01:44:14.939Z,15.61
2018-05-08T01:45:19.806Z,15.72
2018-05-08T01:46:24.528Z,15.79
2018-05-08T01:47:28.591Z,15.77
2018-05-08T01:48:33.030Z,15.77
2018-05-08T01:49:37.485Z,15.71
2018-05-08T01:50:41.563Z,15.64
2018-05-08T01:51:46.035Z,15.66
2018-05-08T01:52:50.416Z,15.53
2018-05-08T01:53:54.834Z,15.42
2018-05-08T01:54:59.230Z,15.44
2018-05-08T01:56:03.330Z,15.46
2018-05-08T01:57:07.372Z,15.35
2018-05-08T01:58:11.511Z,15.42
2018-05-08T01:59:15.578Z,15.43
2018-05-08T02:00:19.714Z,15.37
2018-05-08T02:01:23.928Z,15.27
2018-05-08T02:02:28.047Z,15.36
2018-05-08T02:03:32.102Z,15.30
2018-05-08T02:04:36.189Z,15.23
2018-05-08T02:05:40.234Z,15.24
2018-05-08T02:06:44.668Z,15.12
2018-05-08T02:07:48.829Z,15.05
2018-05-08T02:08:52.884Z,15.00
2018-05-08T02:09:57.031Z,14.92
2018-05-08T02:11:01.093Z,14.96
2018-05-08T02:12:05.174Z,14.89
2018-05-08T02:13:09.241Z,14.79
2018-05-08T02:14:13.321Z,14.78
2018-05-08T02:15:17.699Z,14.82
2018-05-08T02:16:21.802Z,14.80
2018-05-08T02:17:25.910Z,14.74
2018-05-08T02:18:30.060Z,14.77
2018-05-08T02:19:34.509Z,14.83
2018-05-08T02:20:38.672Z,14.80
2018-05-08T02:21:42.825Z,14.86
2018-05-08T02:22:46.891Z,14.82
2018-05-08T02:23:50.968Z,14.75
2018-05-08T02:24:55.427Z,14.75
2018-05-08T02:25:59.877Z,14.72
2018-05-08T02:27:04.191Z,14.80
2018-05-08T02:28:08.263Z,14.92
2018-05-08T02:30:23.249Z,14.99
2018-05-08T02:31:27.647Z,14.92
2018-05-08T02:32:31.787Z,14.80
2018-05-08T02:33:35.864Z,14.73
2018-05-08T02:34:40.033Z,14.62
2018-05-08T02:35:44.093Z,14.64
2018-05-08T02:36:48.259Z,14.64
2018-05-08T02:37:52.671Z,14.71
2018-05-08T02:38:56.755Z,14.76
2018-05-08T02:40:00.876Z,14.86
2018-05-08T02:41:05.043Z,14.80
2018-05-08T02:42:09.104Z,14.68
2018-05-08T02:43:13.262Z,14.75
2018-05-08T02:44:17.655Z,14.76
2018-05-08T02:45:21.891Z,14.72
2018-05-08T02:46:25.951Z,14.83
2018-05-08T02:47:30.113Z,14.88
2018-05-08T02:48:34.195Z,14.94
2018-05-08T02:49:38.674Z,15.12
2018-05-08T02:50:42.785Z,15.06
2018-05-08T02:51:46.854Z,14.96
2018-05-08T02:52:50.995Z,14.92
2018-05-08T02:53:55.175Z,15.03
2018-05-08T02:54:59.360Z,15.05
2018-05-08T02:56:03.819Z,15.00
2018-05-08T02:57:08.145Z,15.07
2018-05-08T02:58:12.229Z,14.95
2018-05-08T02:59:16.414Z,14.82
2018-05-08T03:00:20.791Z,14.83
2018-05-08T03:01:25.137Z,14.82
2018-05-08T03:02:30.026Z,14.83
2018-05-08T03:03:34.088Z,14.81
2018-05-08T03:04:38.251Z,14.78
2018-05-08T03:05:42.308Z,14.91
2018-05-08T03:06:46.355Z,14.86
2018-05-08T03:07:51.219Z,14.74
2018-05-08T03:08:55.725Z,14.81
2018-05-08T03:09:59.884Z,14.81
2018-05-08T03:11:03.944Z,14.75
2018-05-08T03:12:08.035Z,14.70
2018-05-08T03:13:12.103Z,14.53
2018-05-08T03:14:16.187Z,14.66
2018-05-08T03:15:21.209Z,14.70
2018-05-08T03:16:25.267Z,14.67
2018-05-08T03:17:30.088Z,14.68
2018-05-08T03:18:34.192Z,14.77
2018-05-08T03:19:38.242Z,14.77
2018-05-08T03:20:42.452Z,14.84
2018-05-08T03:21:46.835Z,14.90
2018-05-08T03:22:50.900Z,14.83
2018-05-08T03:23:55.046Z,14.71
2018-05-08T03:24:59.126Z,14.60
2018-05-08T03:26:03.308Z,14.56
2018-05-08T03:27:07.372Z,14.50
2018-05-08T03:28:11.758Z,14.44
2018-05-08T03:29:15.848Z,14.36
2018-05-08T03:30:20.348Z,14.39
2018-05-08T03:31:24.536Z,14.41
2018-05-08T03:32:28.613Z,14.38
2018-05-08T03:33:32.734Z,14.28
2018-05-08T03:34:37.219Z,14.34
2018-05-08T03:35:41.368Z,14.41
2018-05-08T03:36:45.430Z,14.42
2018-05-08T03:37:49.494Z,14.45
2018-05-08T03:38:53.679Z,14.43
2018-05-08T03:39:57.743Z,14.34
2018-05-08T03:41:02.121Z,14.36
2018-05-08T03:42:06.330Z,14.50
2018-05-08T03:43:10.502Z,14.58
2018-05-08T03:44:14.580Z,14.47
2018-05-08T03:45:19.122Z,14.53
2018-05-08T03:46:23.260Z,14.48
2018-05-08T03:47:27.653Z,14.50
2018-05-08T03:48:32.523Z,14.41
2018-05-08T03:49:36.591Z,14.45
2018-05-08T03:50:40.720Z,14.43
2018-05-08T03:51:44.796Z,14.43
2018-05-08T03:52:48.844Z,14.35
2018-05-08T03:53:53.217Z,14.37
2018-05-08T03:54:57.298Z,14.33
2018-05-08T03:56:01.517Z,14.26
2018-05-08T03:57:05.566Z,14.24
2018-05-08T03:58:09.633Z,14.24
2018-05-08T03:59:13.678Z,14.33
2018-05-08T04:00:26.614Z,14.38
2018-05-08T04:02:45.224Z,14.53
2018-05-08T04:04:00.272Z,14.78
2018-05-08T04:05:15.219Z,14.76
2018-05-08T04:06:19.832Z,14.75
2018-05-08T04:08:32.522Z,14.67
2018-05-08T04:09:37.054Z,14.94
2018-05-08T04:10:41.136Z,15.00
2018-05-08T04:11:45.234Z,15.01
2018-05-08T04:12:49.728Z,15.21
2018-05-08T04:13:53.913Z,15.21
2018-05-08T04:14:57.997Z,15.29
2018-05-08T04:16:02.366Z,15.22
2018-05-08T04:17:06.882Z,15.30
2018-05-08T04:18:10.971Z,15.41
2018-05-08T04:19:15.384Z,15.47
2018-05-08T04:20:19.506Z,15.57
2018-05-08T04:21:23.585Z,15.74
2018-05-08T04:22:27.764Z,15.75
2018-05-08T04:23:31.832Z,15.74
2018-05-08T04:24:35.896Z,15.72
2018-05-08T04:25:40.484Z,15.74
2018-05-08T04:26:44.656Z,15.72
2018-05-08T04:27:48.764Z,15.81
2018-05-08T04:28:52.837Z,15.91
2018-05-08T04:29:56.916Z,15.96
2018-05-08T04:31:02.570Z,15.97
2018-05-08T04:32:06.666Z,15.88
2018-05-08T04:33:10.728Z,15.90
2018-05-08T04:34:14.801Z,16.09
2018-05-08T04:35:18.878Z,16.13
2018-05-08T04:36:23.084Z,16.33
2018-05-08T04:37:27.464Z,16.48
2018-05-08T04:38:31.526Z,16.68
2018-05-08T04:39:35.609Z,16.70
2018-05-08T04:40:40.312Z,16.74
2018-05-08T04:41:44.406Z,16.85
2018-05-08T04:42:48.466Z,16.91
2018-05-08T04:43:52.605Z,16.87
2018-05-08T04:44:56.695Z,16.87
2018-05-08T04:46:01.646Z,16.97
2018-05-08T04:47:05.748Z,16.86
2018-05-08T04:48:09.861Z,16.94
2018-05-08T04:49:14.214Z,16.90
2018-05-08T04:50:18.306Z,16.95
2018-05-08T04:51:22.490Z,17.11
2018-05-08T04:52:26.570Z,17.11
2018-05-08T04:53:30.631Z,17.25
2018-05-08T04:54:34.748Z,17.32
2018-05-08T04:55:39.224Z,17.36
2018-05-08T04:56:44.134Z,17.51
2018-05-08T04:57:48.210Z,17.73
2018-05-08T04:58:52.376Z,17.64
2018-05-08T04:59:56.478Z,17.48
2018-05-08T05:01:01.205Z,17.60
2018-05-08T05:02:05.332Z,17.75
2018-05-08T05:03:09.504Z,17.84
2018-05-08T05:04:13.542Z,17.91
2018-05-08T05:05:17.632Z,17.97
2018-05-08T05:06:21.782Z,18.04
2018-05-08T05:07:26.215Z,18.20
2018-05-08T05:08:30.346Z,18.08
2018-05-08T05:09:34.473Z,18.28
2018-05-08T05:10:38.606Z,18.18
2018-05-08T05:11:42.690Z,18.19
2018-05-08T05:12:46.806Z,18.45
2018-05-08T05:13:51.521Z,18.77
2018-05-08T05:14:55.674Z,18.73
2018-05-08T05:15:59.961Z,18.88
2018-05-08T05:17:04.066Z,18.97
2018-05-08T05:18:08.177Z,19.02
2018-05-08T05:19:12.275Z,19.01
2018-05-08T05:20:16.719Z,18.93
2018-05-08T05:21:20.977Z,18.88
2018-05-08T05:22:25.140Z,18.94
2018-05-08T05:23:29.226Z,19.13
2018-05-08T05:24:34.338Z,18.96
2018-05-08T05:25:38.525Z,19.16
2018-05-08T05:26:42.652Z,19.33
2018-05-08T05:27:47.309Z,19.55
2018-05-08T05:28:51.366Z,19.66
2018-05-08T05:29:55.433Z,19.76
2018-05-08T05:31:00.091Z,19.89
2018-05-08T05:32:04.443Z,19.92
2018-05-08T05:33:08.980Z,20.02
2018-05-08T05:34:13.121Z,20.00
2018-05-08T05:35:17.197Z,20.18
2018-05-08T05:36:21.333Z,20.27
2018-05-08T05:37:25.419Z,20.21
2018-05-08T05:38:29.897Z,20.33
2018-05-08T05:39:34.037Z,20.49
2018-05-08T05:40:38.112Z,20.62
2018-05-08T05:41:42.859Z,20.86
2018-05-08T05:42:46.898Z,20.94
2018-05-08T05:43:51.072Z,21.02
2018-05-08T05:44:55.475Z,20.99
2018-05-08T05:45:59.679Z,20.95
2018-05-08T05:47:03.877Z,20.87
2018-05-08T05:48:08.179Z,20.85
2018-05-08T05:49:12.444Z,21.16
2018-05-08T05:50:16.535Z,21.17
2018-05-08T05:51:20.591Z,21.25
2018-05-08T05:52:24.691Z,21.14
2018-05-08T05:53:28.837Z,21.22
2018-05-08T05:54:32.960Z,21.26
2018-05-08T05:55:37.059Z,21.20
2018-05-08T05:56:41.423Z,21.14
2018-05-08T05:57:45.477Z,21.10
2018-05-08T05:58:49.528Z,21.19
2018-05-08T05:59:53.707Z,21.35
2018-05-08T06:00:58.047Z,21.46
2018-05-08T06:02:02.249Z,21.68
2018-05-08T06:03:06.323Z,21.81
2018-05-08T06:04:10.598Z,21.93
2018-05-08T06:05:14.963Z,21.93
2018-05-08T06:06:19.080Z,21.89
2018-05-08T06:07:23.177Z,21.90
2018-05-08T06:08:27.304Z,21.69
2018-05-08T06:09:31.367Z,21.79
2018-05-08T06:10:36.381Z,21.89
2018-05-08T06:11:40.492Z,21.98
2018-05-08T06:12:45.587Z,21.97
2018-05-08T06:13:49.739Z,21.88
2018-05-08T06:14:53.834Z,22.09
2018-05-08T06:15:58.038Z,22.40
2018-05-08T06:17:02.139Z,22.29
2018-05-08T06:18:06.575Z,22.47
2018-05-08T06:19:11.110Z,22.72
2018-05-08T06:20:15.605Z,22.54
2018-05-08T06:21:19.877Z,22.66
2018-05-08T06:22:23.955Z,22.77
2018-05-08T06:23:28.167Z,22.93
2018-05-08T06:24:32.571Z,22.91
2018-05-08T06:25:38.471Z,22.86
2018-05-08T06:26:42.589Z,22.88
2018-05-08T06:27:46.706Z,22.93
2018-05-08T06:28:50.873Z,22.87
2018-05-08T06:29:54.991Z,22.94
2018-05-08T06:30:59.745Z,23.06
2018-05-08T06:32:03.843Z,23.34
2018-05-08T06:33:07.962Z,23.40
2018-05-08T06:34:12.059Z,23.29
2018-05-08T06:35:16.142Z,23.25
2018-05-08T06:36:20.228Z,23.24
2018-05-08T06:37:24.426Z,23.11
2018-05-08T06:38:28.479Z,23.19
2018-05-08T06:39:32.849Z,23.26
2018-05-08T06:40:36.903Z,23.01
2018-05-08T06:41:41.098Z,22.86
2018-05-08T06:42:45.259Z,23.02
2018-05-08T06:43:49.651Z,23.12
2018-05-08T06:44:53.767Z,22.95
2018-05-08T06:45:58.235Z,22.82
2018-05-08T06:47:02.541Z,22.70
2018-05-08T06:48:06.623Z,22.63
2018-05-08T06:49:10.716Z,22.56
2018-05-08T06:50:15.080Z,22.50
2018-05-08T06:51:19.277Z,22.62
2018-05-08T06:52:23.409Z,22.82
2018-05-08T06:53:27.451Z,22.95
2018-05-08T06:54:31.651Z,23.01
2018-05-08T06:55:35.839Z,23.06
2018-05-08T06:56:41.171Z,23.11
2018-05-08T06:57:45.417Z,23.10
2018-05-08T06:58:49.595Z,23.09
2018-05-08T06:59:53.755Z,23.15
2018-05-08T07:00:58.137Z,23.15
2018-05-08T07:02:02.574Z,23.15
2018-05-08T07:03:06.671Z,23.24
2018-05-08T07:04:10.989Z,23.36
2018-05-08T07:05:15.226Z,23.45
2018-05-08T07:06:19.433Z,23.43
2018-05-08T07:07:23.696Z,23.40
2018-05-08T07:08:28.191Z,23.38
2018-05-08T07:09:32.562Z,23.72
2018-05-08T07:10:36.757Z,24.08
2018-05-08T07:11:41.554Z,24.20
2018-05-08T07:12:46.598Z,24.23
2018-05-08T07:13:50.738Z,24.49
2018-05-08T07:14:55.263Z,24.69
2018-05-08T07:16:00.125Z,24.81
2018-05-08T07:17:04.741Z,24.90
2018-05-08T07:18:09.337Z,24.87
2018-05-08T07:19:13.465Z,24.82
2018-05-08T07:20:17.635Z,24.70
2018-05-08T07:21:22.148Z,24.70
2018-05-08T07:22:26.494Z,24.66
2018-05-08T07:23:30.703Z,24.71
2018-05-08T07:24:34.906Z,24.71
2018-05-08T07:25:39.239Z,24.77
2018-05-08T07:26:43.518Z,24.81
2018-05-08T07:27:47.807Z,24.88
2018-05-08T07:28:52.622Z,25.02
2018-05-08T07:29:56.822Z,25.03
2018-05-08T07:31:01.604Z,24.99
2018-05-08T07:32:05.876Z,24.89
2018-05-08T07:33:10.186Z,24.98
2018-05-08T07:34:14.586Z,25.14
2018-05-08T07:35:18.661Z,25.23
2018-05-08T07:36:22.821Z,25.20
2018-05-08T07:37:26.896Z,25.26
2018-05-08T07:38:30.965Z,25.31
2018-05-08T07:39:35.128Z,25.25
2018-05-08T07:40:39.489Z,25.40
2018-05-08T07:41:43.651Z,25.55
2018-05-08T07:42:47.795Z,25.78
2018-05-08T07:43:51.924Z,25.87
2018-05-08T07:44:56.063Z,25.97
2018-05-08T07:46:00.142Z,26.01
2018-05-08T07:47:04.495Z,25.79
2018-05-08T07:48:08.617Z,25.88
2018-05-08T07:49:12.740Z,26.11
2018-05-08T07:50:16.827Z,26.04
2018-05-08T07:51:20.899Z,26.11
2018-05-08T07:52:25.085Z,26.43
2018-05-08T07:53:29.307Z,26.53
2018-05-08T07:54:33.492Z,26.53
2018-05-08T07:55:37.583Z,26.51
2018-05-08T07:56:41.686Z,26.56
2018-05-08T07:57:45.805Z,26.48
2018-05-08T07:58:50.430Z,26.55
2018-05-08T07:59:55.069Z,26.62
2018-05-08T08:00:59.954Z,26.47
2018-05-08T08:02:04.015Z,26.56
2018-05-08T08:03:08.096Z,26.51
2018-05-08T08:04:12.270Z,26.28
2018-05-08T08:05:16.649Z,26.30
2018-05-08T08:06:20.800Z,26.48
2018-05-08T08:07:24.965Z,26.50
2018-05-08T08:08:28.988Z,26.61
2018-05-08T08:09:33.182Z,26.56
2018-05-08T08:10:37.260Z,26.47
2018-05-08T08:11:41.728Z,26.68
2018-05-08T08:12:45.977Z,26.85
2018-05-08T08:13:50.068Z,27.11
2018-05-08T08:14:54.238Z,27.25
2018-05-08T08:15:59.587Z,27.36
2018-05-08T08:17:03.660Z,27.56
2018-05-08T08:18:07.737Z,27.80
2018-05-08T08:19:11.933Z,27.90
2018-05-08T08:20:16.043Z,28.04
2018-05-08T08:21:20.205Z,28.11
2018-05-08T08:22:24.284Z,27.88
2018-05-08T08:23:28.442Z,27.58
2018-05-08T08:24:32.913Z,27.45
2018-05-08T08:25:37.017Z,27.34
2018-05-08T08:26:41.097Z,27.32
2018-05-08T08:27:45.270Z,27.36
2018-05-08T08:28:49.568Z,27.27
2018-05-08T08:29:53.638Z,27.23
2018-05-08T08:30:58.571Z,27.22
2018-05-08T08:32:03.105Z,27.17
2018-05-08T08:33:07.195Z,27.21
2018-05-08T08:34:11.355Z,27.08
2018-05-08T08:35:15.429Z,27.03
2018-05-08T08:36:19.523Z,26.90
2018-05-08T08:37:23.946Z,26.89
2018-05-08T08:38:28.127Z,27.00
2018-05-08T08:39:32.251Z,27.10
2018-05-08T08:40:36.339Z,27.06
2018-05-08T08:41:40.418Z,27.06
2018-05-08T08:42:44.619Z,27.01
2018-05-08T08:43:48.829Z,26.96
2018-05-08T08:44:52.925Z,26.89
2018-05-08T08:45:57.614Z,27.02
2018-05-08T08:47:03.045Z,27.10
2018-05-08T08:48:07.639Z,27.17
2018-05-08T08:49:12.163Z,27.08
2018-05-08T08:50:16.519Z,27.20
2018-05-08T08:51:20.955Z,27.28
2018-05-08T08:52:25.514Z,27.23
2018-05-08T08:53:30.043Z,27.27
2018-05-08T08:54:34.568Z,27.30
2018-05-08T08:55:39.035Z,27.42
2018-05-08T08:56:43.090Z,27.56
2018-05-08T08:57:47.377Z,27.76
2018-05-08T08:58:51.561Z,27.92
2018-05-08T08:59:56.048Z,28.03
2018-05-08T09:01:00.482Z,28.39
2018-05-08T09:02:04.543Z,28.43
2018-05-08T09:03:08.672Z,28.33
2018-05-08T09:04:12.715Z,28.35
2018-05-08T09:05:16.779Z,28.25
2018-05-08T09:06:20.883Z,28.18
2018-05-08T09:07:25.058Z,28.35
2018-05-08T09:08:29.122Z,28.46
2018-05-08T09:09:33.193Z,28.67
2018-05-08T09:10:37.447Z,28.79
2018-05-08T09:11:41.835Z,28.82
2018-05-08T09:12:45.972Z,28.80
2018-05-08T09:13:50.264Z,28.86
2018-05-08T09:14:54.655Z,28.78
2018-05-08T09:15:59.240Z,28.75
2018-05-08T09:17:03.615Z,28.44
2018-05-08T09:18:08.101Z,28.48
2018-05-08T09:19:12.259Z,28.69
2018-05-08T09:20:16.328Z,28.84
2018-05-08T09:21:20.502Z,29.02
2018-05-08T09:22:24.706Z,29.10
2018-05-08T09:23:29.137Z,28.96
2018-05-08T09:24:33.231Z,29.05
2018-05-08T09:25:37.332Z,29.03
2018-05-08T09:26:41.516Z,28.88
2018-05-08T09:27:45.637Z,28.59
2018-05-08T09:28:49.931Z,28.46
2018-05-08T09:29:54.330Z,28.44
2018-05-08T09:30:59.982Z,28.51
2018-05-08T09:32:04.204Z,28.62
2018-05-08T09:33:08.310Z,28.85
2018-05-08T09:34:12.966Z,28.79
2018-05-08T09:35:17.036Z,28.64
2018-05-08T09:36:21.406Z,28.51
2018-05-08T09:37:25.463Z,28.52
2018-05-08T09:38:29.594Z,28.49
2018-05-08T09:39:33.698Z,28.56
2018-05-08T09:40:37.738Z,28.50
2018-05-08T09:41:41.888Z,28.28
2018-05-08T09:42:46.344Z,28.33
2018-05-08T09:43:50.474Z,28.41
2018-05-08T09:44:54.863Z,28.38
2018-05-08T09:45:59.601Z,28.38
2018-05-08T09:47:04.050Z,28.36
2018-05-08T09:48:08.430Z,28.45
2018-05-08T09:49:13.141Z,28.58
2018-05-08T09:50:17.144Z,28.67
2018-05-08T09:51:21.313Z,28.49
2018-05-08T09:52:25.386Z,28.49
2018-05-08T09:53:29.520Z,28.49
2018-05-08T09:54:33.644Z,28.53
2018-05-08T09:55:38.032Z,28.61
2018-05-08T09:56:42.106Z,28.71
2018-05-08T09:57:46.220Z,28.64
2018-05-08T09:58:50.480Z,28.63
2018-05-08T09:59:54.653Z,28.82
2018-05-08T10:00:59.052Z,28.81
2018-05-08T10:02:04.442Z,28.76
2018-05-08T10:03:08.657Z,28.87
2018-05-08T10:04:12.717Z,29.02
2018-05-08T10:05:16.888Z,29.11
2018-05-08T10:06:20.989Z,29.16
2018-05-08T10:07:25.067Z,29.26
2018-05-08T10:08:29.468Z,29.18
2018-05-08T10:09:33.614Z,29.15
2018-05-08T10:10:37.688Z,29.12
2018-05-08T10:11:41.732Z,29.28
2018-05-08T10:12:45.819Z,29.38
2018-05-08T10:13:50.091Z,29.19
2018-05-08T10:14:54.287Z,29.08
2018-05-08T10:15:58.661Z,29.10
2018-05-08T10:17:03.381Z,28.98
2018-05-08T10:18:07.820Z,28.94
2018-05-08T10:19:11.956Z,29.21
2018-05-08T10:20:16.062Z,29.38
2018-05-08T10:21:20.241Z,29.35
2018-05-08T10:22:24.324Z,29.66
2018-05-08T10:23:28.554Z,29.34
2018-05-08T10:24:32.635Z,29.07
2018-05-08T10:25:36.801Z,29.21
2018-05-08T10:26:40.879Z,29.50
2018-05-08T10:27:44.976Z,29.37
2018-05-08T10:28:49.244Z,29.11
2018-05-08T10:29:53.379Z,28.93
2018-05-08T10:30:57.772Z,28.68
2018-05-08T10:32:01.846Z,28.81
2018-05-08T10:33:06.918Z,29.10
2018-05-08T10:34:12.450Z,29.32
2018-05-08T10:35:16.519Z,29.24
2018-05-08T10:36:20.622Z,29.37
2018-05-08T10:37:25.064Z,29.55
2018-05-08T10:38:29.120Z,29.69
2018-05-08T10:39:33.198Z,29.72
2018-05-08T10:40:37.321Z,29.29
2018-05-08T10:41:41.425Z,29.22
2018-05-08T10:42:45.519Z,29.08
2018-05-08T10:43:50.046Z,29.21
2018-05-08T10:44:54.153Z,29.28
2018-05-08T10:45:59.080Z,29.46
2018-05-08T10:47:03.578Z,29.89
2018-05-08T10:48:07.663Z,29.27
2018-05-08T10:49:11.854Z,29.02
2018-05-08T10:50:16.219Z,28.67
2018-05-08T10:51:20.365Z,28.81
2018-05-08T10:52:24.477Z,28.87
2018-05-08T10:53:28.544Z,29.22
2018-05-08T10:54:32.614Z,29.50
2018-05-08T10:55:37.029Z,29.44
2018-05-08T10:56:41.134Z,29.28
2018-05-08T10:57:45.226Z,29.39
2018-05-08T10:58:49.319Z,29.80
2018-05-08T10:59:53.520Z,29.87
2018-05-08T11:00:57.703Z,29.84
2018-05-08T11:02:02.578Z,29.95
2018-05-08T11:03:07.548Z,29.57
2018-05-08T11:04:11.640Z,29.71
2018-05-08T11:05:15.726Z,29.56
2018-05-08T11:06:19.959Z,29.66
2018-05-08T11:07:24.053Z,30.38
2018-05-08T11:08:28.448Z,30.38
2018-05-08T11:09:32.552Z,30.06
2018-05-08T11:10:36.609Z,29.66
2018-05-08T11:11:40.757Z,29.68
2018-05-08T11:12:44.833Z,30.12
2018-05-08T11:13:48.952Z,29.59
2018-05-08T11:14:53.045Z,30.14
2018-05-08T11:15:57.121Z,29.96
2018-05-08T11:17:01.624Z,29.79
2018-05-08T11:18:05.699Z,29.95
2018-05-08T11:19:09.873Z,30.24
2018-05-08T11:20:13.959Z,30.43
2018-05-08T11:21:18.451Z,30.64
2018-05-08T11:22:22.537Z,29.90
2018-05-08T11:23:26.608Z,29.92
2018-05-08T11:24:30.710Z,30.15
2018-05-08T11:25:34.848Z,30.11
2018-05-08T11:26:39.105Z,29.83
2018-05-08T11:27:43.456Z,29.40
2018-05-08T11:28:47.620Z,30.03
2018-05-08T11:29:51.703Z,30.21
2018-05-08T11:30:56.296Z,30.51
2018-05-08T11:32:00.778Z,29.90
2018-05-08T11:33:05.483Z,30.36
2018-05-08T11:34:09.832Z,29.89
2018-05-08T11:35:13.907Z,29.40
2018-05-08T11:36:18.055Z,29.58
2018-05-08T11:37:22.117Z,30.59
2018-05-08T11:38:26.195Z,30.41
2018-05-08T11:39:30.351Z,30.52
2018-05-08T11:40:34.738Z,30.72
2018-05-08T11:41:38.905Z,31.25
2018-05-08T11:42:43.010Z,30.37
2018-05-08T11:43:47.225Z,30.19
2018-05-08T11:44:51.282Z,30.04
2018-05-08T11:45:55.778Z,30.69
2018-05-08T11:47:00.228Z,31.69
2018-05-08T11:48:04.774Z,31.77
2018-05-08T11:49:09.166Z,31.82
2018-05-08T11:50:13.399Z,32.17
2018-05-08T11:51:17.502Z,31.95
2018-05-08T11:52:21.581Z,31.40
2018-05-08T11:53:26.042Z,31.51
2018-05-08T11:54:30.128Z,31.97
2018-05-08T11:55:34.358Z,31.88
2018-05-08T11:56:38.467Z,31.57
2018-05-08T11:57:42.745Z,32.11
2018-05-08T11:58:46.931Z,32.14
2018-05-08T11:59:51.056Z,32.09
2018-05-08T12:00:55.257Z,32.33
2018-05-08T12:01:59.412Z,31.76
2018-05-08T12:03:03.557Z,31.55
2018-05-08T12:04:07.666Z,31.05
2018-05-08T12:05:11.753Z,31.20
2018-05-08T12:06:16.158Z,31.58
2018-05-08T12:07:20.238Z,31.79
2018-05-08T12:08:25.361Z,32.26
2018-05-08T12:09:29.430Z,32.14
2018-05-08T12:10:33.592Z,32.01
2018-05-08T12:11:37.692Z,31.63
2018-05-08T12:12:42.118Z,31.98
2018-05-08T12:13:46.314Z,32.04
2018-05-08T12:14:50.546Z,31.90
2018-05-08T12:15:54.921Z,31.28
2018-05-08T12:16:59.376Z,31.31
2018-05-08T12:18:04.024Z,31.10
2018-05-08T12:19:08.438Z,31.05
2018-05-08T12:20:12.564Z,31.02
2018-05-08T12:21:16.826Z,32.15
2018-05-08T12:22:20.938Z,32.38
2018-05-08T12:23:25.010Z,32.23
2018-05-08T12:24:29.120Z,32.21
2018-05-08T12:25:33.394Z,31.04
2018-05-08T12:26:37.430Z,30.69
2018-05-08T12:27:41.626Z,30.78
2018-05-08T12:28:45.748Z,29.96
2018-05-08T12:29:49.960Z,30.38
2018-05-08T12:30:54.328Z,30.70
2018-05-08T12:31:58.397Z,31.00
2018-05-08T12:33:02.508Z,31.64
2018-05-08T12:34:06.684Z,31.74
2018-05-08T12:35:10.770Z,32.16
2018-05-08T12:36:14.894Z,30.70
2018-05-08T12:37:19.002Z,30.46
2018-05-08T12:38:23.135Z,30.79
2018-05-08T12:39:28.299Z,30.54
2018-05-08T12:40:32.430Z,30.73
2018-05-08T12:41:36.827Z,30.95
2018-05-08T12:42:40.954Z,31.62
2018-05-08T12:43:45.040Z,31.26
2018-05-08T12:44:49.264Z,30.89
2018-05-08T12:45:53.367Z,30.45
2018-05-08T12:46:57.618Z,30.51
2018-05-08T12:48:02.104Z,30.96
2018-05-08T12:49:06.308Z,31.68
2018-05-08T12:50:10.425Z,31.36
2018-05-08T12:51:14.512Z,31.46
2018-05-08T12:52:18.671Z,32.46
2018-05-08T12:53:22.758Z,32.48
2018-05-08T12:54:27.182Z,33.42
2018-05-08T12:55:31.874Z,33.05
2018-05-08T12:56:36.029Z,31.99
2018-05-08T12:57:40.133Z,31.53
2018-05-08T12:58:44.237Z,31.89
2018-05-08T12:59:48.354Z,31.24
2018-05-08T13:00:52.650Z,30.97
2018-05-08T13:01:56.752Z,31.43
2018-05-08T13:03:01.209Z,32.09
2018-05-08T13:04:05.307Z,31.42
2018-05-08T13:05:09.379Z,31.66
2018-05-08T13:06:13.447Z,31.77
2018-05-08T13:07:17.925Z,31.81
2018-05-08T13:08:22.088Z,31.62
2018-05-08T13:09:26.170Z,32.29
2018-05-08T13:10:30.255Z,31.12
2018-05-08T13:11:35.045Z,31.34
2018-05-08T13:12:39.197Z,31.23
2018-05-08T13:13:43.625Z,30.98
2018-05-08T13:14:47.723Z,31.11
2018-05-08T13:15:52.079Z,31.84
2018-05-08T13:16:56.185Z,32.23
2018-05-08T13:18:00.397Z,32.04
2018-05-08T13:19:05.033Z,32.80
2018-05-08T13:20:09.228Z,32.58
2018-05-08T13:21:13.321Z,33.06
2018-05-08T13:22:17.379Z,34.28
2018-05-08T13:23:21.573Z,33.42
2018-05-08T13:24:26.280Z,33.78
2018-05-08T13:25:30.639Z,33.88
2018-05-08T13:26:34.801Z,33.63
2018-05-08T13:27:38.907Z,32.53
2018-05-08T13:28:42.963Z,31.97
2018-05-08T13:29:47.067Z,31.85
2018-05-08T13:30:51.679Z,32.01
2018-05-08T13:31:55.793Z,32.49
2018-05-08T13:32:59.880Z,33.21
2018-05-08T13:34:03.967Z,33.80
2018-05-08T13:35:08.151Z,34.02
2018-05-08T13:36:12.398Z,34.15
2018-05-08T13:37:16.901Z,34.27
2018-05-08T13:38:20.991Z,34.69
2018-05-08T13:39:25.059Z,34.25
2018-05-08T13:40:30.034Z,34.38
2018-05-08T13:41:34.269Z,34.74
2018-05-08T13:42:38.366Z,34.27
2018-05-08T13:43:42.485Z,33.51
2018-05-08T13:44:46.546Z,33.55
2018-05-08T13:45:50.712Z,33.22
2018-05-08T13:46:54.836Z,33.59
2018-05-08T13:47:59.049Z,34.77
2018-05-08T13:49:03.484Z,34.18
2018-05-08T13:50:07.579Z,33.65
2018-05-08T13:51:11.720Z,33.88